Las Juanitas, Argentina
Current Conditions -  °F | °C
As of 10:00 AM on Monday 22 Dec 2014 (Local Time) from SAEZ Reporting Station
Few Clouds Few Clouds  
Wind Chill: 63°   Ceiling: Unl
Heat Index: 63°   Visibility: 6mi
Dew Point: 50°   Wind: 12mph
Humidity: 63%   Direction: 220°SW
Pressure: 30.09"   Gusts: NA
Location:  35.63°S, 61.71°W
Report Text: SAEZ 221300Z 22010KT 190V270 9999 FEW030TCU 17/10 Q1019
Loading
Personal Weather Stations






























Interactive Weather Map New forecast layout! Learn more

10-Day Weather Forecast

Advertisements
Track Severe Weather on mobile